Time;durP1;ratioP1;P1;durP2;ratioP2;P2;SDS_P1;SDS_P2;PMS_P1;PMS_P2;Temp;Humidity;BMP_temperature;BMP_pressure;BME280_temperature;BME280_humidity;BME280_pressure;Samples;Min_cycle;Max_cycle;Signal;HPM_P1;HPM_P2
2022/12/30 00:01:23;;;;;;;26.48;7.05;;;8.70;99.90;;;9.03;91.46;100766.25;5074075;28;20044;-62
2022/12/30 00:03:52;;;;;;;27.73;7.70;;;8.80;99.90;;;8.96;91.59;100747.78;5096388;28;20120;-62
2022/12/30 00:06:23;;;;;;;22.73;7.07;;;8.80;99.90;;;9.03;91.33;100768.88;5096211;28;20482;-62
2022/12/30 00:08:55;;;;;;;26.42;7.18;;;8.80;99.90;;;8.98;91.34;100782.94;5096043;28;20343;-62
2022/12/30 00:11:26;;;;;;;22.65;7.35;;;8.80;99.90;;;8.98;91.33;100777.69;5095890;28;20040;-62
2022/12/30 00:33:52;;;;;;;20.95;6.35;;;8.80;99.90;;;8.99;91.35;100776.78;5094272;28;20044;-61
2022/12/30 00:36:24;;;;;;;23.10;6.15;;;8.80;99.90;;;8.88;92.13;100763.56;5095644;28;20139;-61
2022/12/30 00:38:53;;;;;;;24.90;6.82;;;8.80;99.90;;;8.96;92.10;100769.72;5095561;28;20412;-62
2022/12/30 00:44:07;;;;;;;21.00;6.57;;;8.80;99.90;;;8.82;91.70;100728.44;5095352;28;20051;-62
2022/12/30 00:46:40;;;;;;;22.35;6.70;;;8.90;99.90;;;9.03;92.17;100786.47;5095544;28;20044;-62
2022/12/30 00:57:26;;;;;;;21.30;6.40;;;8.80;99.90;;;8.99;92.41;100775.03;5095175;28;20127;-62
2022/12/30 00:59:54;;;;;;;19.52;5.78;;;8.70;99.90;;;8.85;92.85;100755.69;5095246;28;20038;-62
2022/12/30 01:02:25;;;;;;;23.20;6.50;;;8.80;99.90;;;8.93;92.33;100774.13;5095109;28;20084;-61
2022/12/30 01:04:54;;;;;;;20.05;6.25;;;8.70;99.90;;;8.91;92.86;100779.41;5095272;28;20428;-62
2022/12/30 01:07:22;;;;;;;19.65;6.38;;;8.70;99.90;;;9.04;92.47;100769.72;5095082;28;20040;-61
2022/12/30 01:09:51;;;;;;;22.70;6.85;;;8.80;99.90;;;9.01;92.58;100780.31;5076986;28;20118;-61
2022/12/30 01:12:19;;;;;;;26.38;7.13;;;8.80;99.90;;;8.93;92.46;100775.03;5094606;28;20135;-62
2022/12/30 01:14:50;;;;;;;24.27;6.13;;;8.80;99.90;;;8.90;92.30;100780.28;5094710;28;20109;-61
2022/12/30 01:17:22;;;;;;;24.75;6.68;;;8.70;99.90;;;8.79;92.88;100773.22;5094755;28;20489;-61
2022/12/30 01:19:52;;;;;;;26.88;7.63;;;8.70;99.90;;;8.84;92.97;100784.69;5094792;28;20040;-61
2022/12/30 01:22:21;;;;;;;25.03;6.87;;;8.60;99.90;;;8.63;93.28;100756.50;5094740;28;20068;-61
2022/12/30 01:24:49;;;;;;;19.50;6.40;;;8.60;99.90;;;8.55;93.28;100724.03;5094621;28;20047;-62
2022/12/30 01:27:18;;;;;;;24.38;7.30;;;8.60;99.90;;;8.21;93.13;100664.19;5094459;28;20036;-61
2022/12/30 01:29:47;;;;;;;22.67;7.40;;;8.70;99.90;;;8.99;93.37;100785.59;5094450;28;20130;-61
2022/12/30 01:32:18;;;;;;;22.67;6.35;;;8.70;99.90;;;8.32;92.90;100680.06;5094736;28;20674;-61
2022/12/30 01:34:48;;;;;;;18.33;6.38;;;8.80;99.90;;;8.99;92.71;100801.41;5094610;28;20047;-61
2022/12/30 01:37:17;;;;;;;21.40;7.22;;;8.80;99.90;;;9.01;92.51;100783.81;5094297;28;20039;-61
2022/12/30 01:39:46;;;;;;;21.63;6.83;;;8.80;99.90;;;9.03;92.62;100791.72;5094296;28;20490;-61
2022/12/30 01:42:21;;;;;;;25.73;6.82;;;8.80;99.90;;;9.10;91.96;100796.13;5094101;28;20305;-61
2022/12/30 01:45:00;;;;;;;21.40;6.45;;;8.90;99.90;;;8.86;92.22;100778.56;5076237;28;20055;-61
2022/12/30 01:47:38;;;;;;;20.63;6.75;;;8.80;99.90;;;8.53;91.98;100728.41;5094123;28;20490;-61
2022/12/30 01:50:20;;;;;;;23.77;6.80;;;8.80;99.90;;;8.94;92.32;100804.94;5094137;28;20482;-62
2022/12/30 01:52:56;;;;;;;24.65;6.82;;;8.80;99.90;;;9.03;92.50;100802.28;5075776;28;20048;-61
2022/12/30 01:55:31;;;;;;;16.70;7.10;;;8.80;99.90;;;8.92;91.95;100794.34;5093931;28;20040;-61
2022/12/30 01:58:01;;;;;;;20.25;7.35;;;8.80;99.90;;;8.96;92.17;100790.84;5075815;28;20048;-62
2022/12/30 02:00:29;;;;;;;;;;;8.80;99.90;;;8.89;91.94;100790.84;5094290;28;20052;-61
2022/12/30 02:02:58;;;;;;;21.20;6.72;;;8.80;99.90;;;8.86;92.02;100786.47;5093785;28;20397;-62
2022/12/30 02:05:31;;;;;;;23.88;7.20;;;8.70;99.90;;;8.86;91.98;100789.09;5093462;28;20058;-62
2022/12/30 02:08:08;;;;;;;20.52;6.70;;;8.70;99.90;;;8.83;92.31;100778.53;5093755;28;20544;-61
2022/12/30 02:10:39;;;;;;;21.80;6.50;;;8.60;99.90;;;8.65;92.92;100767.09;5093875;28;20060;-62
2022/12/30 02:13:11;;;;;;;21.13;6.70;;;8.50;99.90;;;8.64;93.16;100767.94;5093743;28;20568;-61
2022/12/30 02:16:11;;;;;;;21.98;7.65;;;8.50;99.90;;;8.59;93.16;100756.53;5093587;28;20156;-62
2022/12/30 02:18:58;;;;;;;18.65;7.15;;;8.50;99.90;;;8.45;93.47;100756.50;5075606;28;20078;-61
2022/12/30 02:21:43;;;;;;;30.10;8.07;;;8.40;99.90;;;8.56;93.87;100770.56;5093509;28;20124;-61
2022/12/30 02:24:54;;;;;;;20.02;6.70;;;8.40;99.90;;;8.52;94.01;100760.00;5092765;28;20568;-61
2022/12/30 02:28:09;;;;;;;19.42;6.32;;;8.40;99.90;;;8.55;94.15;100766.19;5093713;28;20050;-61
2022/12/30 02:31:25;;;;;;;31.60;7.70;;;8.40;99.90;;;8.55;94.76;100765.31;5093148;28;20048;-61
2022/12/30 02:34:04;;;;;;;18.35;6.80;;;8.40;99.90;;;8.59;95.12;100770.59;5093224;28;20450;-62
2022/12/30 02:36:43;;;;;;;25.67;7.38;;;8.40;99.90;;;8.53;95.00;100756.50;5093545;28;20532;-61
2022/12/30 02:39:23;;;;;;;26.00;7.25;;;8.40;99.90;;;8.51;94.88;100753.88;5093259;28;20070;-61
2022/12/30 02:44:56;;;;;;;23.75;7.05;;;8.40;99.90;;;8.57;95.01;100763.56;5075039;28;19956;-61
2022/12/30 02:47:30;;;;;;;21.95;6.97;;;8.40;99.90;;;8.54;94.59;100755.63;5093077;28;20058;-61
2022/12/30 02:52:51;;;;;;;22.17;7.65;;;8.40;99.90;;;8.50;94.11;100761.75;5093255;28;20541;-61
2022/12/30 02:55:20;;;;;;;20.95;7.43;;;8.30;99.90;;;8.44;93.78;100753.88;5092867;28;20036;-61
2022/12/30 02:57:49;;;;;;;26.88;7.68;;;8.30;99.90;;;8.52;93.82;100768.81;5092872;28;20044;-61
2022/12/30 03:06:54;;;;;;;21.05;7.63;;;8.30;99.90;;;8.35;93.33;100762.63;5074892;28;20048;-62
2022/12/30 03:11:12;;;;;;;28.15;7.90;;;8.30;99.90;;;8.45;93.43;100774.06;5091269;28;20117;-61
2022/12/30 03:12:47;;;;;;;21.38;8.15;;;8.30;99.90;;;8.44;92.61;100753.88;5092991;28;20048;-61
2022/12/30 03:15:20;;;;;;;20.92;7.90;;;8.30;99.90;;;8.37;92.93;100759.97;5091624;28;20495;-62
2022/12/30 03:17:50;;;;;;;21.35;6.93;;;8.20;99.90;;;8.25;92.63;100736.22;5092802;28;20040;-61
2022/12/30 03:20:23;;;;;;;23.80;7.50;;;8.20;99.90;;;8.36;92.79;100753.84;5092617;28;20052;-61
2022/12/30 03:28:30;;;;;;;23.67;8.27;;;8.10;99.90;;;8.28;93.45;100741.53;5092559;28;20085;-61
2022/12/30 03:31:02;;;;;;;15.55;6.78;;;8.10;99.90;;;8.14;92.95;100713.34;5092458;28;20059;-61
2022/12/30 03:33:32;;;;;;;22.33;7.53;;;8.10;99.90;;;8.20;93.22;100730.94;5074775;28;20052;-61
2022/12/30 03:36:12;;;;;;;23.55;7.32;;;8.10;99.90;;;8.29;93.09;100732.72;5093447;28;20044;-62
2022/12/30 03:38:47;;;;;;;22.95;7.40;;;8.10;99.90;;;8.21;93.21;100762.53;5096666;28;20058;-61
2022/12/30 03:41:17;;;;;;;23.02;7.28;;;8.10;99.90;;;8.20;92.91;100731.81;5096660;28;20557;-62
2022/12/30 03:43:46;;;;;;;26.08;7.60;;;8.10;99.90;;;8.16;92.88;100732.69;5096676;28;20495;-62
2022/12/30 03:46:15;;;;;;;27.00;8.32;;;8.00;99.90;;;8.23;93.05;100737.09;5096640;28;20036;-61
2022/12/30 03:48:43;;;;;;;25.80;7.60;;;8.10;99.90;;;7.98;92.66;100692.22;5096328;28;20437;-62
2022/12/30 03:51:13;;;;;;;19.92;7.53;;;8.10;99.90;;;8.11;93.30;100715.97;5096343;28;20497;-62
2022/12/30 03:53:41;;;;;;;20.23;7.13;;;8.00;99.90;;;8.13;93.01;100724.75;5096268;28;20052;-61
2022/12/30 03:56:09;;;;;;;31.38;8.07;;;8.00;99.90;;;8.07;93.32;100713.34;5096271;28;20290;-62
2022/12/30 03:58:38;;;;;;;22.23;7.28;;;8.00;99.90;;;8.11;93.49;100728.25;5096214;28;20044;-62
2022/12/30 04:01:06;;;;;;;23.35;8.02;;;8.00;99.90;;;7.84;93.30;100676.38;5078092;28;20040;-61
2022/12/30 04:03:35;;;;;;;22.77;8.10;;;8.00;99.90;;;8.11;93.06;100710.69;5095781;28;20056;-61
2022/12/30 04:06:04;;;;;;;20.20;7.35;;;8.00;99.90;;;8.12;93.66;100716.84;5095968;28;20040;-61
2022/12/30 04:08:34;;;;;;;23.13;6.97;;;8.00;99.90;;;8.21;93.07;100711.59;5095948;28;20056;-62
2022/12/30 04:11:02;;;;;;;32.65;8.02;;;8.00;99.90;;;8.20;92.74;100699.31;5095224;28;20058;-61
2022/12/30 04:13:31;;;;;;;22.73;6.93;;;8.10;99.90;;;8.28;92.75;100696.72;5096073;28;20036;-61
2022/12/30 04:15:59;;;;;;;18.17;7.07;;;8.10;99.90;;;8.28;92.54;100723.09;5095974;28;20412;-62
2022/12/30 04:18:27;;;;;;;20.08;7.28;;;8.10;99.90;;;8.30;92.46;100708.16;5095843;28;20055;-61
2022/12/30 04:20:56;;;;;;;18.08;6.97;;;8.10;99.90;;;8.18;91.87;100733.56;5095729;28;20137;-61
2022/12/30 04:23:24;;;;;;;21.55;7.75;;;8.10;99.90;;;8.21;92.45;100724.78;5095663;28;20055;-61
2022/12/30 04:25:54;;;;;;;23.08;7.20;;;8.10;99.90;;;8.18;92.65;100711.59;5095825;28;20272;-61
2022/12/30 04:28:22;;;;;;;17.23;6.70;;;8.10;99.90;;;8.21;92.55;100712.47;5095690;28;20040;-61
2022/12/30 04:30:50;;;;;;;22.00;7.65;;;8.00;99.90;;;8.01;92.71;100687.84;5077486;28;20083;-61
2022/12/30 04:33:19;;;;;;;20.30;6.88;;;8.00;99.90;;;8.05;92.85;100712.44;5077267;28;20044;-61
2022/12/30 04:35:47;;;;;;;22.75;7.85;;;8.00;99.90;;;7.90;93.56;100667.63;5095737;28;20058;-61
2022/12/30 04:38:15;;;;;;;19.15;7.53;;;8.00;99.90;;;8.20;93.36;100699.31;5077585;28;20101;-61
2022/12/30 04:40:44;;;;;;;14.07;6.50;;;8.10;99.90;;;8.20;92.44;100694.06;5095336;28;20036;-61
2022/12/30 04:43:14;;;;;;;19.38;7.28;;;8.10;99.90;;;8.13;92.90;100703.69;5095367;28;20516;-61
2022/12/30 04:45:42;;;;;;;20.48;6.88;;;8.00;99.90;;;7.46;92.91;100591.16;5095419;28;20485;-61
2022/12/30 04:48:11;;;;;;;21.20;6.60;;;8.10;99.90;;;8.11;93.05;100692.25;5094356;28;20036;-62
2022/12/30 04:50:43;;;;;;;27.15;7.50;;;8.00;99.90;;;7.90;92.86;100652.69;5095449;28;20067;-61
2022/12/30 04:53:12;;;;;;;22.02;7.22;;;8.00;99.90;;;7.68;92.66;100628.94;5095349;28;20040;-61
2022/12/30 04:55:41;;;;;;;22.35;6.90;;;8.00;99.90;;;8.17;92.80;100694.03;5077041;28;20597;-61
2022/12/30 04:58:09;;;;;;;26.92;8.05;;;8.00;99.90;;;8.09;92.49;100701.91;5095027;28;20040;-61
2022/12/30 05:00:39;;;;;;;27.38;7.63;;;8.00;99.90;;;7.99;93.19;100694.00;5094960;28;20044;-61
2022/12/30 05:03:08;;;;;;;19.30;7.40;;;7.90;99.90;;;7.87;93.74;100678.16;5094953;28;20047;-61
2022/12/30 05:05:36;;;;;;;23.40;7.32;;;7.90;99.90;;;7.81;93.28;100662.31;5095168;28;20040;-62
2022/12/30 05:08:05;;;;;;;21.58;7.25;;;7.90;99.90;;;7.92;94.01;100681.66;5095223;28;20489;-61
2022/12/30 05:10:34;;;;;;;20.92;7.55;;;7.90;99.90;;;7.76;93.77;100635.13;5094810;28;20420;-61
2022/12/30 05:13:02;;;;;;;21.55;7.75;;;7.90;99.90;;;8.01;93.74;100672.03;5094624;28;20494;-62
2022/12/30 05:15:31;;;;;;;21.25;7.65;;;7.90;99.90;;;7.99;93.17;100684.31;5094714;28;20110;-61
2022/12/30 05:18:01;;;;;;;20.05;7.43;;;7.90;99.90;;;7.96;93.63;100681.69;5094881;28;20093;-61
2022/12/30 05:20:29;;;;;;;27.87;8.47;;;7.90;99.90;;;7.90;93.66;100665.88;5094671;28;20473;-62
2022/12/30 05:22:57;;;;;;;24.20;7.80;;;7.90;99.90;;;7.92;93.18;100660.59;5094612;28;20274;-62
2022/12/30 05:28:12;;;;;;;17.08;7.40;;;7.90;99.90;;;7.92;92.99;100669.38;5094641;28;20547;-61
2022/12/30 05:30:40;;;;;;;25.80;8.20;;;7.90;99.90;;;7.94;93.11;100659.75;5076200;28;20128;-61
2022/12/30 05:33:10;;;;;;;19.88;7.28;;;7.80;99.90;;;7.91;93.48;100674.66;5094369;28;20456;-62
2022/12/30 05:35:38;;;;;;;25.27;7.63;;;7.80;99.90;;;7.87;93.63;100664.97;5094471;28;20044;-61
2022/12/30 05:38:07;;;;;;;20.20;7.20;;;7.80;99.90;;;7.83;93.25;100686.91;5094220;28;20655;-61
2022/12/30 05:40:35;;;;;;;23.20;7.65;;;7.80;99.90;;;7.75;93.48;100675.47;5094216;28;20043;-61
2022/12/30 05:43:03;;;;;;;26.17;7.45;;;7.70;99.90;;;7.71;93.63;100671.94;5094346;28;20043;-61
2022/12/30 05:45:32;;;;;;;20.98;7.28;;;7.60;99.90;;;7.49;94.17;100659.56;5093973;28;20050;-62
2022/12/30 05:48:00;;;;;;;20.48;7.28;;;7.50;99.90;;;7.48;94.95;100647.28;5094183;28;20040;-62
2022/12/30 05:50:30;;;;;;;26.25;8.23;;;7.50;99.90;;;7.58;94.84;100643.84;5093971;28;20036;-61
2022/12/30 05:52:59;;;;;;;;;;;7.50;99.90;;;7.51;94.70;100639.41;5094431;28;20113;-62
2022/12/30 05:55:27;;;;;;;22.70;7.63;;;7.50;99.90;;;7.58;94.59;100640.31;5094157;28;19927;-61
2022/12/30 05:57:58;;;;;;;25.13;8.38;;;7.50;99.90;;;7.28;94.71;100627.88;5094089;28;20091;-61
2022/12/30 06:00:26;;;;;;;22.58;7.28;;;7.40;99.90;;;7.17;95.25;100635.75;5093825;28;20040;-61
2022/12/30 06:02:55;;;;;;;29.17;8.43;;;7.20;99.90;;;7.01;96.42;100633.00;5093778;28;20044;-61
2022/12/30 06:05:24;;;;;;;28.00;8.40;;;7.10;99.90;;;7.00;96.94;100629.50;5093185;28;20072;-61
2022/12/30 06:07:53;;;;;;;24.52;8.55;;;7.00;99.90;;;6.94;97.42;100611.06;5093673;28;20427;-61
2022/12/30 06:10:22;;;;;;;23.45;8.88;;;7.00;99.90;;;7.05;97.10;100624.25;5093792;28;20074;-61
2022/12/30 06:12:50;;;;;;;30.67;8.93;;;7.10;99.90;;;7.08;97.21;100629.56;5093707;28;20043;-61
2022/12/30 06:15:19;;;;;;;25.63;8.88;;;7.10;99.90;;;6.94;97.72;100625.97;5093759;28;20113;-61
2022/12/30 06:17:47;;;;;;;21.92;8.20;;;7.00;99.90;;;6.71;97.86;100586.41;5093492;28;20048;-62
2022/12/30 06:20:16;;;;;;;25.15;8.13;;;6.90;99.90;;;6.92;98.35;100622.44;5093666;28;20047;-61
2022/12/30 06:22:44;;;;;;;28.92;7.55;;;6.90;99.90;;;6.91;99.06;100615.44;5093372;28;20044;-61
2022/12/30 06:25:14;;;;;;;30.45;8.45;;;6.90;99.90;;;6.65;99.03;100572.31;5093511;28;20044;-62
2022/12/30 06:27:43;;;;;;;27.40;7.43;;;6.90;99.90;;;6.71;99.30;100581.13;5094032;28;20125;-62
2022/12/30 06:30:13;;;;;;;22.58;7.80;;;6.80;99.90;;;6.91;99.43;100610.19;5093268;28;20040;-61
2022/12/30 06:32:42;;;;;;;29.55;7.93;;;6.90;99.90;;;6.87;99.57;100603.13;5093349;28;20048;-61
2022/12/30 06:35:11;;;;;;;29.98;8.73;;;6.90;99.90;;;6.74;99.97;100599.53;5093331;28;20044;-61
2022/12/30 06:37:40;;;;;;;26.15;7.85;;;6.80;99.90;;;6.23;100.00;100507.25;5093285;28;20044;-62
2022/12/30 06:40:11;;;;;;;20.88;7.35;;;6.70;99.90;;;6.72;100.00;100595.13;5093183;28;20512;-61
2022/12/30 06:42:40;;;;;;;31.80;8.93;;;6.70;99.90;;;6.66;100.00;100560.97;5093133;28;20044;-62
2022/12/30 06:45:09;;;;;;;19.53;7.50;;;6.70;99.90;;;6.81;100.00;100592.59;5092996;28;20040;-62
2022/12/30 06:47:38;;;;;;;27.75;8.32;;;6.80;99.90;;;6.62;100.00;100557.41;5091956;28;20075;-62
2022/12/30 06:50:08;;;;;;;33.28;8.52;;;6.80;99.90;;;6.77;100.00;100572.41;5093097;28;20040;-63
2022/12/30 06:52:36;;;;;;;32.88;9.55;;;6.80;99.90;;;6.76;100.00;100562.75;5093018;28;20051;-60
2022/12/30 06:55:06;;;;;;;25.10;8.52;;;6.80;99.90;;;6.91;100.00;100574.22;5092838;28;20583;-60
2022/12/30 06:57:36;;;;;;;23.20;7.78;;;6.90;99.90;;;6.74;100.00;100577.63;5092763;28;20071;-60
2022/12/30 07:00:08;;;;;;;;;;;6.80;99.90;;;6.82;100.00;100554.91;5093332;28;20436;-61
2022/12/30 07:02:36;;;;;;;26.90;8.25;;;6.90;99.90;;;6.84;100.00;100543.53;5091538;28;19923;-61
2022/12/30 07:05:06;;;;;;;21.10;8.65;;;6.80;99.90;;;6.76;100.00;100520.69;5092434;28;20467;-60
2022/12/30 07:07:35;;;;;;;28.92;8.80;;;6.90;99.90;;;6.89;100.00;100554.09;5092892;28;20397;-61
2022/12/30 07:10:04;;;;;;;21.88;8.93;;;6.90;99.90;;;6.89;100.00;100543.56;5092573;28;20036;-60
2022/12/30 07:12:33;;;;;;;27.60;8.88;;;6.90;99.90;;;6.88;100.00;100532.16;5092272;28;20123;-61
2022/12/30 07:15:01;;;;;;;24.20;8.98;;;6.90;99.90;;;7.00;100.00;100545.38;5092707;28;20054;-61
2022/12/30 07:17:31;;;;;;;28.38;9.23;;;7.00;99.90;;;7.00;100.00;100518.19;5092570;28;20379;-61
2022/12/30 07:20:00;;;;;;;20.15;8.60;;;7.00;99.90;;;6.97;100.00;100523.44;5074667;28;20048;-61
2022/12/30 07:22:28;;;;;;;26.40;9.25;;;6.90;99.90;;;6.88;100.00;100510.25;5092419;28;20058;-60
2022/12/30 07:24:57;;;;;;;24.88;9.35;;;6.90;99.90;;;6.84;100.00;100516.38;5092454;28;20519;-61
2022/12/30 07:27:25;;;;;;;22.85;9.98;;;6.90;99.90;;;6.83;100.00;100504.13;5092425;28;20050;-61
2022/12/30 07:29:54;;;;;;;24.45;8.93;;;6.90;99.90;;;6.79;100.00;100508.47;5092502;28;20078;-61
2022/12/30 07:32:22;;;;;;;24.42;9.82;;;6.80;99.90;;;6.82;100.00;100510.22;5092536;28;20046;-61
2022/12/30 07:34:52;;;;;;;25.45;9.98;;;6.80;99.90;;;6.88;100.00;100498.00;5092227;28;20101;-60
2022/12/30 07:37:21;;;;;;;21.35;9.68;;;6.90;99.90;;;6.58;100.00;100471.56;5092672;28;20044;-61
2022/12/30 07:39:50;;;;;;;31.20;11.27;;;6.80;99.90;;;6.75;100.00;100498.81;5092476;28;20448;-61
2022/12/30 07:42:18;;;;;;;29.02;12.30;;;6.70;99.90;;;6.69;100.00;100488.28;5092639;28;20131;-61
2022/12/30 07:44:47;;;;;;;25.33;11.52;;;6.70;99.90;;;6.74;100.00;100509.31;5074150;28;20051;-63
2022/12/30 07:47:15;;;;;;;30.40;13.13;;;6.70;99.90;;;6.67;100.00;100497.91;5092059;28;20090;-61
2022/12/30 07:49:43;;;;;;;27.40;12.65;;;6.80;99.90;;;6.39;100.00;100478.47;5092345;28;20094;-62
2022/12/30 07:52:13;;;;;;;25.92;14.02;;;6.80;99.90;;;6.75;100.00;100490.94;5074106;28;20048;-62
2022/12/30 07:54:42;;;;;;;35.85;14.32;;;6.80;99.90;;;6.76;100.00;100481.28;5092387;28;20040;-61
2022/12/30 07:57:10;;;;;;;29.42;13.63;;;6.70;99.90;;;6.81;100.00;100466.44;5092166;28;20036;-61
2022/12/30 07:59:39;;;;;;;24.25;12.05;;;6.80;99.90;;;6.65;100.00;100481.25;5092318;28;20114;-59
2022/12/30 08:02:10;;;;;;;27.10;12.57;;;6.80;99.90;;;6.94;100.00;100484.88;5090735;28;20045;-61
2022/12/30 08:04:39;;;;;;;26.17;12.02;;;6.90;99.90;;;6.87;100.00;100466.47;5091981;28;20052;-60
2022/12/30 08:07:24;;;;;;;28.45;13.45;;;6.80;99.90;;;6.84;100.00;100455.91;5092145;28;20044;-60
2022/12/30 08:09:52;;;;;;;24.13;13.88;;;6.80;99.90;;;6.60;100.00;100454.06;5092269;28;20051;-61
2022/12/30 08:12:21;;;;;;;31.27;13.98;;;6.80;99.90;;;6.76;100.00;100458.50;5092050;28;20106;-61
2022/12/30 08:14:50;;;;;;;27.80;13.90;;;6.80;99.90;;;6.80;100.00;100464.66;5092039;28;20044;-60
2022/12/30 08:17:18;;;;;;;32.92;14.63;;;6.80;99.90;;;6.94;100.00;100453.34;5092028;28;20387;-60
2022/12/30 08:19:47;;;;;;;24.42;13.95;;;6.90;99.90;;;7.00;100.00;100460.38;5092025;28;20449;-60
2022/12/30 08:22:17;;;;;;;31.67;13.60;;;6.90;99.90;;;6.82;100.00;100426.13;5092415;28;20154;-60
2022/12/30 08:24:47;;;;;;;30.63;13.68;;;7.00;99.90;;;7.00;100.00;100449.84;5095803;28;20222;-61
2022/12/30 08:27:15;;;;;;;22.98;12.65;;;7.00;99.90;;;7.12;100.00;100448.13;5095627;28;20040;-60
2022/12/30 08:29:44;;;;;;;23.42;12.10;;;7.10;99.90;;;7.06;100.00;100500.72;5095719;28;20071;-61
2022/12/30 08:32:13;;;;;;;28.17;12.98;;;7.10;99.90;;;7.06;100.00;100468.28;5095502;28;20036;-61
2022/12/30 08:34:41;;;;;;;24.40;12.45;;;7.00;99.90;;;7.15;100.00;100460.41;5095607;28;20036;-61
2022/12/30 08:37:10;;;;;;;26.83;12.20;;;7.10;99.90;;;7.22;100.00;100455.16;5095814;28;20070;-60
2022/12/30 08:39:38;;;;;;;24.55;11.43;;;7.20;99.90;;;7.32;100.00;100488.50;5095607;28;20042;-62
2022/12/30 08:42:08;;;;;;;22.15;12.50;;;7.30;99.90;;;7.32;100.00;100471.84;5077629;28;20431;-61
2022/12/30 08:44:37;;;;;;;20.15;11.68;;;7.30;99.90;;;7.40;100.00;100441.16;5096269;28;20549;-61
2022/12/30 08:47:05;;;;;;;28.40;12.27;;;7.30;99.90;;;7.40;100.00;100449.06;5077391;28;20048;-61
2022/12/30 08:49:34;;;;;;;21.17;11.48;;;7.40;99.90;;;7.38;100.00;100444.66;5095205;28;20067;-60
2022/12/30 08:52:03;;;;;;;25.88;13.02;;;7.30;99.90;;;7.22;100.00;100397.28;5095491;28;20051;-60
2022/12/30 08:54:31;;;;;;;28.27;11.93;;;7.40;99.90;;;7.51;100.00;100404.34;5095172;28;20040;-61
2022/12/30 08:56:59;;;;;;;25.95;11.32;;;7.40;99.90;;;7.47;100.00;100434.16;5077429;28;20047;-60
2022/12/30 08:59:29;;;;;;;22.70;9.68;;;7.40;99.90;;;7.36;100.00;100383.28;5095631;28;20072;-60
2022/12/30 09:01:57;;;;;;;18.20;10.02;;;7.40;99.90;;;7.50;100.00;100416.63;5094937;28;20488;-62
2022/12/30 09:04:28;;;;;;;20.90;10.60;;;7.50;99.90;;;7.51;100.00;100386.78;5095259;28;20056;-60
2022/12/30 09:06:56;;;;;;;21.70;10.90;;;7.40;99.90;;;7.46;100.00;100421.88;5095202;28;20048;-60
2022/12/30 09:09:25;;;;;;;24.83;11.45;;;7.40;99.90;;;7.57;100.00;100392.06;5095120;28;20054;-60
2022/12/30 09:11:53;;;;;;;22.02;10.07;;;7.50;99.90;;;7.53;100.00;100368.41;5095517;28;20048;-60
2022/12/30 09:14:22;;;;;;;23.20;10.52;;;7.50;99.90;;;7.53;100.00;100402.59;5095072;28;20119;-60
2022/12/30 09:16:52;;;;;;;18.17;9.95;;;7.50;99.90;;;7.51;100.00;100388.56;5094825;28;20060;-60
2022/12/30 09:19:20;;;;;;;26.70;10.27;;;7.50;99.90;;;7.52;100.00;100379.78;5095123;28;20076;-60
2022/12/30 09:21:50;;;;;;;22.40;10.15;;;7.50;99.90;;;7.38;100.00;100353.47;5094569;28;20501;-60
2022/12/30 09:24:19;;;;;;;28.35;10.30;;;7.40;99.90;;;7.60;100.00;100352.59;5095008;28;20052;-60
2022/12/30 09:26:48;;;;;;;19.05;8.55;;;7.50;99.90;;;7.55;100.00;100356.97;5094587;28;20044;-60
2022/12/30 09:29:17;;;;;;;19.20;8.88;;;7.50;99.90;;;7.51;100.00;100370.16;5094322;28;20092;-60
2022/12/30 09:31:46;;;;;;;20.38;8.52;;;7.50;99.90;;;7.56;100.00;100342.94;5094297;28;20468;-60
2022/12/30 09:34:16;;;;;;;21.90;8.02;;;7.50;99.90;;;7.52;100.00;100342.94;5094080;28;20432;-60
2022/12/30 09:36:45;;;;;;;21.90;8.75;;;7.50;99.90;;;7.50;100.00;100335.06;5094406;28;20414;-61
2022/12/30 09:39:13;;;;;;;18.58;7.97;;;7.50;99.90;;;7.43;100.00;100349.09;5094602;28;20036;-61
2022/12/30 09:45:01;;;;;;;19.00;7.80;;;7.40;99.90;;;7.29;100.00;100335.06;5094824;28;20109;-61
2022/12/30 09:47:33;;;;;;;18.90;7.10;;;7.30;99.90;;;7.36;100.00;100318.41;5094552;28;20423;-61
2022/12/30 09:50:07;;;;;;;18.48;8.20;;;7.30;99.90;;;7.33;100.00;100326.31;5094553;28;20040;-61
2022/12/30 09:52:41;;;;;;;15.25;7.50;;;7.40;99.90;;;7.46;100.00;100353.47;5094474;28;20444;-61
2022/12/30 09:55:17;;;;;;;17.77;7.43;;;7.40;99.90;;;7.53;100.00;100306.09;5094089;28;20048;-61
2022/12/30 09:57:52;;;;;;;18.38;7.65;;;7.50;99.90;;;7.52;100.00;100321.91;5094240;28;20067;-61
2022/12/30 10:00:24;;;;;;;17.48;7.53;;;7.50;99.90;;;7.55;100.00;100285.06;5094476;28;20039;-61
2022/12/30 10:03:01;;;;;;;15.27;6.93;;;7.50;99.90;;;7.37;100.00;100262.28;5094106;28;20398;-61
2022/12/30 10:05:59;;;;;;;12.38;6.70;;;7.50;99.90;;;7.43;100.00;100256.16;5094189;28;20052;-61
2022/12/30 10:08:42;;;;;;;14.82;7.13;;;7.50;99.90;;;7.44;100.00;100261.41;5093972;28;20048;-61
2022/12/30 10:11:26;;;;;;;16.35;8.18;;;7.50;99.90;;;7.52;100.00;100262.25;5093701;28;20461;-61
2022/12/30 10:14:08;;;;;;;15.02;7.10;;;7.50;99.90;;;7.56;100.00;100239.44;5093743;28;20143;-61
2022/12/30 10:16:52;;;;;;;21.05;7.15;;;7.50;99.90;;;7.12;100.00;100153.59;5093759;28;20090;-61
2022/12/30 10:19:32;;;;;;;14.38;7.10;;;7.50;99.90;;;7.59;100.00;100227.16;5093649;28;20067;-61
2022/12/30 10:22:10;;;;;;;10.07;6.40;;;7.60;99.90;;;7.60;100.00;100225.41;5093569;28;20047;-61
2022/12/30 10:24:54;;;;;;;11.88;7.28;;;7.60;99.90;;;7.61;100.00;100217.50;5094110;28;20048;-61
2022/12/30 10:27:31;;;;;;;14.23;6.40;;;7.60;99.90;;;7.61;100.00;100220.13;5093378;28;20040;-61
2022/12/30 10:29:59;;;;;;;11.27;6.40;;;7.50;99.90;;;7.62;100.00;100194.69;5093425;28;20052;-61
2022/12/30 10:32:32;;;;;;;11.68;5.95;;;7.60;99.90;;;7.81;100.00;100186.72;5093331;28;20123;-61
2022/12/30 10:35:11;;;;;;;14.20;6.65;;;7.70;99.90;;;7.87;100.00;100185.81;5093319;28;20074;-61
2022/12/30 10:37:41;;;;;;;12.30;6.00;;;7.80;99.90;;;7.66;100.00;100172.75;5093344;28;20044;-61
2022/12/30 10:40:14;;;;;;;14.30;6.55;;;7.80;99.90;;;7.87;100.00;100183.19;5093617;28;20044;-61
2022/12/30 10:43:24;;;;;;;11.68;6.00;;;7.80;99.90;;;7.89;100.00;100184.06;5093420;28;20036;-61
2022/12/30 10:46:08;;;;;;;13.50;6.47;;;7.90;99.90;;;7.93;100.00;100134.03;5074633;28;20055;-61
2022/12/30 10:49:17;;;;;;;13.05;5.97;;;7.90;99.90;;;7.84;100.00;100131.41;5093273;28;20044;-61
2022/12/30 10:51:49;;;;;;;9.65;5.78;;;8.00;99.90;;;8.01;100.00;100087.41;5073935;28;20105;-61
2022/12/30 10:54:18;;;;;;;10.95;5.90;;;8.00;99.90;;;8.06;100.00;100090.91;5093070;28;20499;-61
2022/12/30 10:56:49;;;;;;;15.83;6.13;;;8.00;99.90;;;8.11;100.00;100086.47;5074991;28;20048;-61
2022/12/30 10:59:21;;;;;;;12.55;6.53;;;8.00;99.90;;;8.13;100.00;100091.72;5093447;28;20051;-61
2022/12/30 11:01:55;;;;;;;8.57;4.97;;;8.10;99.90;;;8.04;99.93;100055.81;5092639;28;20409;-61
2022/12/30 11:04:36;;;;;;;15.13;5.78;;;8.10;99.90;;;8.21;100.00;100059.19;5092929;28;20405;-61
2022/12/30 11:07:09;;;;;;;16.00;6.32;;;8.10;99.90;;;8.04;99.70;100018.06;5093045;28;20068;-61
2022/12/30 11:09:39;;;;;;;15.05;6.15;;;8.20;99.90;;;8.21;99.81;100060.94;5093167;28;20101;-61
2022/12/30 11:15:19;;;;;;;11.05;5.03;;;8.20;99.90;;;8.32;99.95;100058.28;5074860;28;20040;-60
2022/12/30 11:17:51;;;;;;;18.08;6.68;;;8.20;99.90;;;8.42;99.65;100004.63;5093185;28;20083;-62
2022/12/30 11:20:35;;;;;;;13.40;5.65;;;8.30;99.90;;;8.30;99.21;100013.50;5093044;28;20044;-61
2022/12/30 11:23:06;;;;;;;13.77;5.38;;;8.40;99.90;;;8.46;99.22;100037.97;5093097;28;20044;-61
2022/12/30 11:25:43;;;;;;;13.23;5.55;;;8.40;99.90;;;8.47;99.68;99992.25;5092592;28;20040;-61
2022/12/30 11:28:18;;;;;;;12.25;5.93;;;8.40;99.90;;;8.44;99.93;99979.13;5092386;28;20044;-61
2022/12/30 11:30:59;;;;;;;12.70;5.45;;;8.40;99.90;;;8.35;99.95;99973.94;5092368;28;20086;-61
2022/12/30 11:33:31;;;;;;;12.68;5.88;;;8.40;99.90;;;8.52;100.00;99993.06;5091078;28;20056;-62